sensor_id;sensor_type;location;lat;lon;timestamp;temperature;humidity
63976;DHT22;50167;47.958;21.780;2022-10-15T00:00:50;-128.00;-1.00
63976;DHT22;50167;47.958;21.780;2022-10-15T00:03:17;-128.00;-1.00
63976;DHT22;50167;47.958;21.780;2022-10-15T00:05:44;-128.00;-1.00
63976;DHT22;50167;47.958;21.780;2022-10-15T00:08:11;-128.00;-1.00
63976;DHT22;50167;47.958;21.780;2022-10-15T00:10:38;-128.00;-1.00
63976;DHT22;50167;47.958;21.780;2022-10-15T00:13:05;-128.00;-1.00
63976;DHT22;50167;47.958;21.780;2022-10-15T00:15:35;-128.00;-1.00
63976;DHT22;50167;47.958;21.780;2022-10-15T00:18:02;-128.00;-1.00
63976;DHT22;50167;47.958;21.780;2022-10-15T00:20:29;-128.00;-1.00
63976;DHT22;50167;47.958;21.780;2022-10-15T00:22:57;-128.00;-1.00
63976;DHT22;50167;47.958;21.780;2022-10-15T00:25:24;-128.00;-1.00
63976;DHT22;50167;47.958;21.780;2022-10-15T00:27:50;-128.00;-1.00
63976;DHT22;50167;47.958;21.780;2022-10-15T00:30:17;-128.00;-1.00
63976;DHT22;50167;47.958;21.780;2022-10-15T00:32:44;-128.00;-1.00
63976;DHT22;50167;47.958;21.780;2022-10-15T00:35:11;-128.00;-1.00
63976;DHT22;50167;47.958;21.780;2022-10-15T00:37:38;-128.00;-1.00
63976;DHT22;50167;47.958;21.780;2022-10-15T00:40:05;-128.00;-1.00
63976;DHT22;50167;47.958;21.780;2022-10-15T00:42:34;-128.00;-1.00
63976;DHT22;50167;47.958;21.780;2022-10-15T00:45:00;-128.00;-1.00
63976;DHT22;50167;47.958;21.780;2022-10-15T00:47:46;-128.00;-1.00
63976;DHT22;50167;47.958;21.780;2022-10-15T00:50:13;-128.00;-1.00
63976;DHT22;50167;47.958;21.780;2022-10-15T00:53:02;-128.00;-1.00
63976;DHT22;50167;47.958;21.780;2022-10-15T00:55:32;-128.00;-1.00
63976;DHT22;50167;47.958;21.780;2022-10-15T00:58:11;-128.00;-1.00
63976;DHT22;50167;47.958;21.780;2022-10-15T01:00:35;-128.00;-1.00
63976;DHT22;50167;47.958;21.780;2022-10-15T01:03:02;-128.00;-1.00
63976;DHT22;50167;47.958;21.780;2022-10-15T01:05:30;-128.00;-1.00
63976;DHT22;50167;47.958;21.780;2022-10-15T01:07:57;-128.00;-1.00
63976;DHT22;50167;47.958;21.780;2022-10-15T01:10:34;-128.00;-1.00
63976;DHT22;50167;47.958;21.780;2022-10-15T01:13:06;-128.00;-1.00
63976;DHT22;50167;47.958;21.780;2022-10-15T01:15:39;-128.00;-1.00
63976;DHT22;50167;47.958;21.780;2022-10-15T01:21:27;-128.00;-1.00
63976;DHT22;50167;47.958;21.780;2022-10-15T01:27:23;-128.00;-1.00
63976;DHT22;50167;47.958;21.780;2022-10-15T01:32:56;-128.00;-1.00
63976;DHT22;50167;47.958;21.780;2022-10-15T01:43:00;-128.00;-1.00
63976;DHT22;50167;47.958;21.780;2022-10-15T01:45:34;-128.00;-1.00
63976;DHT22;50167;47.958;21.780;2022-10-15T01:48:04;-128.00;-1.00
63976;DHT22;50167;47.958;21.780;2022-10-15T01:50:33;-128.00;-1.00
63976;DHT22;50167;47.958;21.780;2022-10-15T01:53:00;-128.00;-1.00
63976;DHT22;50167;47.958;21.780;2022-10-15T01:55:28;-128.00;-1.00
63976;DHT22;50167;47.958;21.780;2022-10-15T01:57:57;-128.00;-1.00
63976;DHT22;50167;47.958;21.780;2022-10-15T02:00:25;-128.00;-1.00
63976;DHT22;50167;47.958;21.780;2022-10-15T02:02:51;-128.00;-1.00
63976;DHT22;50167;47.958;21.780;2022-10-15T02:05:24;-128.00;-1.00
63976;DHT22;50167;47.958;21.780;2022-10-15T02:07:55;-128.00;-1.00
63976;DHT22;50167;47.958;21.780;2022-10-15T02:18:51;-128.00;-1.00
63976;DHT22;50167;47.958;21.780;2022-10-15T02:21:21;-128.00;-1.00
63976;DHT22;50167;47.958;21.780;2022-10-15T02:24:10;-128.00;-1.00
63976;DHT22;50167;47.958;21.780;2022-10-15T02:26:37;-128.00;-1.00
63976;DHT22;50167;47.958;21.780;2022-10-15T02:29:07;-128.00;-1.00
63976;DHT22;50167;47.958;21.780;2022-10-15T02:31:34;-128.00;-1.00
63976;DHT22;50167;47.958;21.780;2022-10-15T02:34:05;-128.00;-1.00
63976;DHT22;50167;47.958;21.780;2022-10-15T02:36:32;-128.00;-1.00
63976;DHT22;50167;47.958;21.780;2022-10-15T02:39:00;-128.00;-1.00
63976;DHT22;50167;47.958;21.780;2022-10-15T02:41:29;-128.00;-1.00
63976;DHT22;50167;47.958;21.780;2022-10-15T02:43:56;-128.00;-1.00
63976;DHT22;50167;47.958;21.780;2022-10-15T02:46:23;-128.00;-1.00
63976;DHT22;50167;47.958;21.780;2022-10-15T02:48:50;-128.00;-1.00
63976;DHT22;50167;47.958;21.780;2022-10-15T02:51:16;-128.00;-1.00
63976;DHT22;50167;47.958;21.780;2022-10-15T02:53:43;-128.00;-1.00
63976;DHT22;50167;47.958;21.780;2022-10-15T02:56:10;-128.00;-1.00
63976;DHT22;50167;47.958;21.780;2022-10-15T02:58:37;-128.00;-1.00
63976;DHT22;50167;47.958;21.780;2022-10-15T03:01:04;-128.00;-1.00
63976;DHT22;50167;47.958;21.780;2022-10-15T03:03:31;-128.00;-1.00
63976;DHT22;50167;47.958;21.780;2022-10-15T03:05:58;-128.00;-1.00
63976;DHT22;50167;47.958;21.780;2022-10-15T03:08:24;-128.00;-1.00
63976;DHT22;50167;47.958;21.780;2022-10-15T03:10:51;-128.00;-1.00
63976;DHT22;50167;47.958;21.780;2022-10-15T03:13:18;-128.00;-1.00
63976;DHT22;50167;47.958;21.780;2022-10-15T03:15:45;-128.00;-1.00
63976;DHT22;50167;47.958;21.780;2022-10-15T03:18:12;-128.00;-1.00
63976;DHT22;50167;47.958;21.780;2022-10-15T03:20:39;-128.00;-1.00
63976;DHT22;50167;47.958;21.780;2022-10-15T03:23:06;-128.00;-1.00
63976;DHT22;50167;47.958;21.780;2022-10-15T03:25:33;-128.00;-1.00
63976;DHT22;50167;47.958;21.780;2022-10-15T03:28:00;-128.00;-1.00
63976;DHT22;50167;47.958;21.780;2022-10-15T03:30:27;-128.00;-1.00
63976;DHT22;50167;47.958;21.780;2022-10-15T03:32:54;-128.00;-1.00
63976;DHT22;50167;47.958;21.780;2022-10-15T03:35:20;-128.00;-1.00
63976;DHT22;50167;47.958;21.780;2022-10-15T03:37:47;-128.00;-1.00
63976;DHT22;50167;47.958;21.780;2022-10-15T03:40:14;-128.00;-1.00
63976;DHT22;50167;47.958;21.780;2022-10-15T03:42:41;-128.00;-1.00
63976;DHT22;50167;47.958;21.780;2022-10-15T03:45:08;-128.00;-1.00
63976;DHT22;50167;47.958;21.780;2022-10-15T03:47:35;-128.00;-1.00
63976;DHT22;50167;47.958;21.780;2022-10-15T03:50:03;-128.00;-1.00
63976;DHT22;50167;47.958;21.780;2022-10-15T03:52:30;-128.00;-1.00
63976;DHT22;50167;47.958;21.780;2022-10-15T03:54:56;-128.00;-1.00
63976;DHT22;50167;47.958;21.780;2022-10-15T03:57:23;-128.00;-1.00
63976;DHT22;50167;47.958;21.780;2022-10-15T03:59:50;-128.00;-1.00
63976;DHT22;50167;47.958;21.780;2022-10-15T04:02:17;-128.00;-1.00
63976;DHT22;50167;47.958;21.780;2022-10-15T04:04:44;-128.00;-1.00
63976;DHT22;50167;47.958;21.780;2022-10-15T04:07:11;-128.00;-1.00
63976;DHT22;50167;47.958;21.780;2022-10-15T04:09:37;-128.00;-1.00
63976;DHT22;50167;47.958;21.780;2022-10-15T04:12:04;-128.00;-1.00
63976;DHT22;50167;47.958;21.780;2022-10-15T04:14:31;-128.00;-1.00
63976;DHT22;50167;47.958;21.780;2022-10-15T04:16:58;-128.00;-1.00
63976;DHT22;50167;47.958;21.780;2022-10-15T04:19:25;-128.00;-1.00
63976;DHT22;50167;47.958;21.780;2022-10-15T04:21:52;-128.00;-1.00
63976;DHT22;50167;47.958;21.780;2022-10-15T04:24:19;-128.00;-1.00
63976;DHT22;50167;47.958;21.780;2022-10-15T04:26:46;-128.00;-1.00
63976;DHT22;50167;47.958;21.780;2022-10-15T04:29:13;-128.00;-1.00
63976;DHT22;50167;47.958;21.780;2022-10-15T04:31:40;-128.00;-1.00
63976;DHT22;50167;47.958;21.780;2022-10-15T04:34:07;-128.00;-1.00
63976;DHT22;50167;47.958;21.780;2022-10-15T04:36:34;-128.00;-1.00
63976;DHT22;50167;47.958;21.780;2022-10-15T04:39:02;-128.00;-1.00
63976;DHT22;50167;47.958;21.780;2022-10-15T04:41:29;-128.00;-1.00
63976;DHT22;50167;47.958;21.780;2022-10-15T04:43:57;-128.00;-1.00
63976;DHT22;50167;47.958;21.780;2022-10-15T04:46:24;-128.00;-1.00
63976;DHT22;50167;47.958;21.780;2022-10-15T04:48:52;-128.00;-1.00
63976;DHT22;50167;47.958;21.780;2022-10-15T04:51:21;-128.00;-1.00
63976;DHT22;50167;47.958;21.780;2022-10-15T04:53:48;-128.00;-1.00
63976;DHT22;50167;47.958;21.780;2022-10-15T04:56:17;-128.00;-1.00
63976;DHT22;50167;47.958;21.780;2022-10-15T04:58:45;-128.00;-1.00
63976;DHT22;50167;47.958;21.780;2022-10-15T05:01:14;-128.00;-1.00
63976;DHT22;50167;47.958;21.780;2022-10-15T05:03:43;-128.00;-1.00
63976;DHT22;50167;47.958;21.780;2022-10-15T05:08:44;-128.00;-1.00
63976;DHT22;50167;47.958;21.780;2022-10-15T05:11:23;-128.00;-1.00
63976;DHT22;50167;47.958;21.780;2022-10-15T05:13:51;-128.00;-1.00
63976;DHT22;50167;47.958;21.780;2022-10-15T05:16:20;-128.00;-1.00
63976;DHT22;50167;47.958;21.780;2022-10-15T05:18:49;-128.00;-1.00
63976;DHT22;50167;47.958;21.780;2022-10-15T05:21:17;-128.00;-1.00
63976;DHT22;50167;47.958;21.780;2022-10-15T05:23:45;-128.00;-1.00
63976;DHT22;50167;47.958;21.780;2022-10-15T05:26:19;-128.00;-1.00
63976;DHT22;50167;47.958;21.780;2022-10-15T05:28:42;-128.00;-1.00
63976;DHT22;50167;47.958;21.780;2022-10-15T05:31:12;-128.00;-1.00
63976;DHT22;50167;47.958;21.780;2022-10-15T05:33:39;-128.00;-1.00
63976;DHT22;50167;47.958;21.780;2022-10-15T05:36:14;-128.00;-1.00
63976;DHT22;50167;47.958;21.780;2022-10-15T05:38:45;-128.00;-1.00
63976;DHT22;50167;47.958;21.780;2022-10-15T05:41:13;-128.00;-1.00
63976;DHT22;50167;47.958;21.780;2022-10-15T05:43:40;-128.00;-1.00
63976;DHT22;50167;47.958;21.780;2022-10-15T05:46:07;-128.00;-1.00
63976;DHT22;50167;47.958;21.780;2022-10-15T05:48:41;-128.00;-1.00
63976;DHT22;50167;47.958;21.780;2022-10-15T05:51:09;-128.00;-1.00
63976;DHT22;50167;47.958;21.780;2022-10-15T05:53:41;-128.00;-1.00
63976;DHT22;50167;47.958;21.780;2022-10-15T05:56:09;-128.00;-1.00
63976;DHT22;50167;47.958;21.780;2022-10-15T05:58:36;-128.00;-1.00
63976;DHT22;50167;47.958;21.780;2022-10-15T06:01:05;-128.00;-1.00
63976;DHT22;50167;47.958;21.780;2022-10-15T06:03:32;-128.00;-1.00
63976;DHT22;50167;47.958;21.780;2022-10-15T06:05:59;-128.00;-1.00
63976;DHT22;50167;47.958;21.780;2022-10-15T06:08:27;-128.00;-1.00
63976;DHT22;50167;47.958;21.780;2022-10-15T06:10:54;-128.00;-1.00
63976;DHT22;50167;47.958;21.780;2022-10-15T06:13:22;-128.00;-1.00
63976;DHT22;50167;47.958;21.780;2022-10-15T06:15:49;-128.00;-1.00
63976;DHT22;50167;47.958;21.780;2022-10-15T06:18:15;-128.00;-1.00
63976;DHT22;50167;47.958;21.780;2022-10-15T06:20:42;-128.00;-1.00
63976;DHT22;50167;47.958;21.780;2022-10-15T06:23:10;-128.00;-1.00
63976;DHT22;50167;47.958;21.780;2022-10-15T06:25:38;-128.00;-1.00
63976;DHT22;50167;47.958;21.780;2022-10-15T06:28:05;-128.00;-1.00
63976;DHT22;50167;47.958;21.780;2022-10-15T06:30:32;-128.00;-1.00
63976;DHT22;50167;47.958;21.780;2022-10-15T06:32:59;-128.00;-1.00
63976;DHT22;50167;47.958;21.780;2022-10-15T06:35:26;-128.00;-1.00
63976;DHT22;50167;47.958;21.780;2022-10-15T06:38:03;-128.00;-1.00
63976;DHT22;50167;47.958;21.780;2022-10-15T06:40:31;-128.00;-1.00
63976;DHT22;50167;47.958;21.780;2022-10-15T06:43:08;-128.00;-1.00
63976;DHT22;50167;47.958;21.780;2022-10-15T06:45:38;-128.00;-1.00
63976;DHT22;50167;47.958;21.780;2022-10-15T06:48:06;-128.00;-1.00
63976;DHT22;50167;47.958;21.780;2022-10-15T06:50:34;-128.00;-1.00
63976;DHT22;50167;47.958;21.780;2022-10-15T06:53:02;-128.00;-1.00
63976;DHT22;50167;47.958;21.780;2022-10-15T06:55:29;-128.00;-1.00
63976;DHT22;50167;47.958;21.780;2022-10-15T06:57:56;-128.00;-1.00
63976;DHT22;50167;47.958;21.780;2022-10-15T07:00:23;-128.00;-1.00
63976;DHT22;50167;47.958;21.780;2022-10-15T07:02:50;-128.00;-1.00
63976;DHT22;50167;47.958;21.780;2022-10-15T07:05:18;-128.00;-1.00
63976;DHT22;50167;47.958;21.780;2022-10-15T07:07:52;-128.00;-1.00
63976;DHT22;50167;47.958;21.780;2022-10-15T07:10:19;-128.00;-1.00
63976;DHT22;50167;47.958;21.780;2022-10-15T07:12:46;-128.00;-1.00
63976;DHT22;50167;47.958;21.780;2022-10-15T07:15:14;-128.00;-1.00
63976;DHT22;50167;47.958;21.780;2022-10-15T07:17:51;-128.00;-1.00
63976;DHT22;50167;47.958;21.780;2022-10-15T07:20:18;-128.00;-1.00
63976;DHT22;50167;47.958;21.780;2022-10-15T07:22:45;-128.00;-1.00
63976;DHT22;50167;47.958;21.780;2022-10-15T07:25:12;-128.00;-1.00
63976;DHT22;50167;47.958;21.780;2022-10-15T07:27:39;-128.00;-1.00
63976;DHT22;50167;47.958;21.780;2022-10-15T07:30:07;-128.00;-1.00
63976;DHT22;50167;47.958;21.780;2022-10-15T07:32:34;-128.00;-1.00
63976;DHT22;50167;47.958;21.780;2022-10-15T16:02:53;21.22;52.09
63976;DHT22;50167;47.958;21.780;2022-10-15T16:05:19;20.11;54.18
63976;DHT22;50167;47.958;21.780;2022-10-15T16:07:47;19.21;56.36
63976;DHT22;50167;47.958;21.780;2022-10-15T16:10:13;18.56;58.06
63976;DHT22;50167;47.958;21.780;2022-10-15T16:15:42;17.43;61.00
63976;DHT22;50167;47.958;21.780;2022-10-15T16:18:08;17.05;62.46
63976;DHT22;50167;47.958;21.780;2022-10-15T16:20:35;17.69;64.79
63976;DHT22;50167;47.958;21.780;2022-10-15T16:23:03;19.05;62.03
63976;DHT22;50167;47.958;21.780;2022-10-15T16:25:29;19.83;59.00
63976;DHT22;50167;47.958;21.780;2022-10-15T16:27:57;19.60;56.66
63976;DHT22;50167;47.958;21.780;2022-10-15T16:30:26;18.64;57.75
63976;DHT22;50167;47.958;21.780;2022-10-15T16:32:52;17.90;59.60
63976;DHT22;50167;47.958;21.780;2022-10-15T16:35:18;17.36;61.26
63976;DHT22;50167;47.958;21.780;2022-10-15T16:37:44;16.92;62.67
63976;DHT22;50167;47.958;21.780;2022-10-15T16:40:11;17.47;64.92
63976;DHT22;50167;47.958;21.780;2022-10-15T16:42:37;18.71;63.19
63976;DHT22;50167;47.958;21.780;2022-10-15T16:45:04;19.55;59.96
63976;DHT22;50167;47.958;21.780;2022-10-15T16:47:30;19.42;57.19
63976;DHT22;50167;47.958;21.780;2022-10-15T16:49:56;18.49;58.13
63976;DHT22;50167;47.958;21.780;2022-10-15T16:52:22;17.73;59.90
63976;DHT22;50167;47.958;21.780;2022-10-15T16:54:48;17.11;61.55
63976;DHT22;50167;47.958;21.780;2022-10-15T16:57:14;16.64;63.18
63976;DHT22;50167;47.958;21.780;2022-10-15T16:59:40;17.22;65.25
63976;DHT22;50167;47.958;21.780;2022-10-15T17:02:08;18.28;63.53
63976;DHT22;50167;47.958;21.780;2022-10-15T17:04:35;19.01;60.96
63976;DHT22;50167;47.958;21.780;2022-10-15T17:07:01;19.45;59.24
63976;DHT22;50167;47.958;21.780;2022-10-15T17:09:27;19.18;57.29
63976;DHT22;50167;47.958;21.780;2022-10-15T17:11:53;18.29;58.43
63976;DHT22;50167;47.958;21.780;2022-10-15T17:14:19;17.54;60.26
63976;DHT22;50167;47.958;21.780;2022-10-15T17:16:50;17.02;61.67
63976;DHT22;50167;47.958;21.780;2022-10-15T17:19:23;16.53;62.84
63976;DHT22;50167;47.958;21.780;2022-10-15T17:21:51;17.26;65.86
63976;DHT22;50167;47.958;21.780;2022-10-15T17:24:19;18.48;63.06
63976;DHT22;50167;47.958;21.780;2022-10-15T17:26:46;19.17;60.10
63976;DHT22;50167;47.958;21.780;2022-10-15T17:29:19;19.63;58.39
63976;DHT22;50167;47.958;21.780;2022-10-15T17:31:47;19.25;56.43
63976;DHT22;50167;47.958;21.780;2022-10-15T17:34:14;18.33;58.01
63976;DHT22;50167;47.958;21.780;2022-10-15T17:36:45;17.60;59.79
63976;DHT22;50167;47.958;21.780;2022-10-15T17:39:16;17.04;57.80
63976;DHT22;50167;47.958;21.780;2022-10-15T17:41:43;16.59;61.98
63976;DHT22;50167;47.958;21.780;2022-10-15T17:44:10;17.12;65.18
63976;DHT22;50167;47.958;21.780;2022-10-15T17:46:37;18.36;62.84
63976;DHT22;50167;47.958;21.780;2022-10-15T17:49:04;19.14;60.20
63976;DHT22;50167;47.958;21.780;2022-10-15T17:51:32;19.57;58.20
63976;DHT22;50167;47.958;21.780;2022-10-15T17:53:59;19.19;56.47
63976;DHT22;50167;47.958;21.780;2022-10-15T17:56:29;18.22;57.79
63976;DHT22;50167;47.958;21.780;2022-10-15T17:58:57;17.45;59.80
63976;DHT22;50167;47.958;21.780;2022-10-15T18:01:31;16.88;61.47
63976;DHT22;50167;47.958;21.780;2022-10-15T18:03:57;16.41;63.00
63976;DHT22;50167;47.958;21.780;2022-10-15T18:06:25;17.07;65.77
63976;DHT22;50167;47.958;21.780;2022-10-15T18:08:53;18.29;63.18
63976;DHT22;50167;47.958;21.780;2022-10-15T18:11:27;19.07;60.10
63976;DHT22;50167;47.958;21.780;2022-10-15T18:13:54;19.55;57.84
63976;DHT22;50167;47.958;21.780;2022-10-15T18:16:20;19.18;56.13
63976;DHT22;50167;47.958;21.780;2022-10-15T18:18:47;18.22;57.68
63976;DHT22;50167;47.958;21.780;2022-10-15T18:21:17;17.45;59.69
63976;DHT22;50167;47.958;21.780;2022-10-15T18:23:43;16.87;61.22
63976;DHT22;50167;47.958;21.780;2022-10-15T18:26:21;16.41;62.77
63976;DHT22;50167;47.958;21.780;2022-10-15T18:28:52;17.05;65.40
63976;DHT22;50167;47.958;21.780;2022-10-15T18:31:19;18.16;62.90
63976;DHT22;50167;47.958;21.780;2022-10-15T18:33:49;18.87;60.34
63976;DHT22;50167;47.958;21.780;2022-10-15T18:36:28;19.29;58.45
63976;DHT22;50167;47.958;21.780;2022-10-15T18:38:56;18.87;56.69
63976;DHT22;50167;47.958;21.780;2022-10-15T18:41:29;17.98;58.36
63976;DHT22;50167;47.958;21.780;2022-10-15T18:44:04;17.21;60.01
63976;DHT22;50167;47.958;21.780;2022-10-15T18:46:33;16.61;61.78
63976;DHT22;50167;47.958;21.780;2022-10-15T18:49:00;16.20;63.40
63976;DHT22;50167;47.958;21.780;2022-10-15T18:51:27;16.84;66.21
63976;DHT22;50167;47.958;21.780;2022-10-15T18:53:54;18.02;63.37
63976;DHT22;50167;47.958;21.780;2022-10-15T18:56:20;18.71;60.59
63976;DHT22;50167;47.958;21.780;2022-10-15T18:58:47;19.15;58.84
63976;DHT22;50167;47.958;21.780;2022-10-15T19:01:41;18.87;56.89
63976;DHT22;50167;47.958;21.780;2022-10-15T19:04:13;17.78;58.52
63976;DHT22;50167;47.958;21.780;2022-10-15T19:06:43;17.04;60.41
63976;DHT22;50167;47.958;21.780;2022-10-15T19:09:13;16.50;62.08
63976;DHT22;50167;47.958;21.780;2022-10-15T19:11:41;16.94;65.14
63976;DHT22;50167;47.958;21.780;2022-10-15T19:14:08;18.04;62.55
63976;DHT22;50167;47.958;21.780;2022-10-15T19:16:34;18.66;60.31
63976;DHT22;50167;47.958;21.780;2022-10-15T19:19:03;19.07;58.67
63976;DHT22;50167;47.958;21.780;2022-10-15T19:21:30;18.69;56.83
63976;DHT22;50167;47.958;21.780;2022-10-15T19:23:57;17.74;58.14
63976;DHT22;50167;47.958;21.780;2022-10-15T19:26:24;16.95;60.08
63976;DHT22;50167;47.958;21.780;2022-10-15T19:28:50;16.39;61.87
63976;DHT22;50167;47.958;21.780;2022-10-15T19:31:26;15.88;63.08
63976;DHT22;50167;47.958;21.780;2022-10-15T19:33:53;16.49;66.39
63976;DHT22;50167;47.958;21.780;2022-10-15T19:36:22;17.53;63.64
63976;DHT22;50167;47.958;21.780;2022-10-15T19:38:49;18.11;61.37
63976;DHT22;50167;47.958;21.780;2022-10-15T19:41:17;18.55;59.65
63976;DHT22;50167;47.958;21.780;2022-10-15T19:43:44;18.28;57.90
63976;DHT22;50167;47.958;21.780;2022-10-15T19:46:10;17.33;58.95
63976;DHT22;50167;47.958;21.780;2022-10-15T19:48:37;16.49;61.06
63976;DHT22;50167;47.958;21.780;2022-10-15T19:51:05;15.85;63.13
63976;DHT22;50167;47.958;21.780;2022-10-15T19:53:32;16.29;65.95
63976;DHT22;50167;47.958;21.780;2022-10-15T19:56:02;17.25;64.28
63976;DHT22;50167;47.958;21.780;2022-10-15T19:58:29;17.83;62.11
63976;DHT22;50167;47.958;21.780;2022-10-15T20:00:56;18.23;60.66
63976;DHT22;50167;47.958;21.780;2022-10-15T20:03:25;18.66;59.17
63976;DHT22;50167;47.958;21.780;2022-10-15T20:05:52;18.31;57.39
63976;DHT22;50167;47.958;21.780;2022-10-15T20:08:18;17.33;58.95
63976;DHT22;50167;47.958;21.780;2022-10-15T20:10:47;16.53;60.93
63976;DHT22;50167;47.958;21.780;2022-10-15T20:13:17;15.86;62.61
63976;DHT22;50167;47.958;21.780;2022-10-15T20:15:47;16.29;65.68
63976;DHT22;50167;47.958;21.780;2022-10-15T20:18:14;17.30;63.70
63976;DHT22;50167;47.958;21.780;2022-10-15T20:20:43;17.94;61.33
63976;DHT22;50167;47.958;21.780;2022-10-15T20:23:12;18.37;59.66
63976;DHT22;50167;47.958;21.780;2022-10-15T20:25:40;18.07;57.75
63976;DHT22;50167;47.958;21.780;2022-10-15T20:28:10;17.08;59.25
63976;DHT22;50167;47.958;21.780;2022-10-15T20:30:38;16.28;61.18
63976;DHT22;50167;47.958;21.780;2022-10-15T20:33:07;15.63;62.91
63976;DHT22;50167;47.958;21.780;2022-10-15T20:35:35;16.02;66.12
63976;DHT22;50167;47.958;21.780;2022-10-15T20:38:03;17.09;64.21
63976;DHT22;50167;47.958;21.780;2022-10-15T20:40:29;17.76;61.51
63976;DHT22;50167;47.958;21.780;2022-10-15T20:42:56;18.11;60.10
63976;DHT22;50167;47.958;21.780;2022-10-15T20:45:22;18.33;59.15
63976;DHT22;50167;47.958;21.780;2022-10-15T20:47:52;17.95;57.49
63976;DHT22;50167;47.958;21.780;2022-10-15T20:50:28;16.95;58.97
63976;DHT22;50167;47.958;21.780;2022-10-15T20:52:56;16.09;60.79
63976;DHT22;50167;47.958;21.780;2022-10-15T20:55:23;15.49;62.56
63976;DHT22;50167;47.958;21.780;2022-10-15T20:57:50;15.88;65.93
63976;DHT22;50167;47.958;21.780;2022-10-15T21:00:16;16.81;63.88
63976;DHT22;50167;47.958;21.780;2022-10-15T21:02:43;17.45;62.02
63976;DHT22;50167;47.958;21.780;2022-10-15T21:05:09;17.81;60.49
63976;DHT22;50167;47.958;21.780;2022-10-15T21:07:35;18.01;59.36
63976;DHT22;50167;47.958;21.780;2022-10-15T21:10:02;17.58;57.76
63976;DHT22;50167;47.958;21.780;2022-10-15T21:12:28;16.66;59.05
63976;DHT22;50167;47.958;21.780;2022-10-15T21:14:55;15.88;60.81
63976;DHT22;50167;47.958;21.780;2022-10-15T21:17:21;15.22;62.79
63976;DHT22;50167;47.958;21.780;2022-10-15T21:19:47;15.68;66.31
63976;DHT22;50167;47.958;21.780;2022-10-15T21:22:13;16.88;64.52
63976;DHT22;50167;47.958;21.780;2022-10-15T21:24:39;17.49;61.36
63976;DHT22;50167;47.958;21.780;2022-10-15T21:27:05;17.83;59.84
63976;DHT22;50167;47.958;21.780;2022-10-15T21:29:33;18.07;58.88
63976;DHT22;50167;47.958;21.780;2022-10-15T21:31:59;17.53;57.28
63976;DHT22;50167;47.958;21.780;2022-10-15T21:34:25;16.51;58.97
63976;DHT22;50167;47.958;21.780;2022-10-15T21:36:55;15.70;60.94
63976;DHT22;50167;47.958;21.780;2022-10-15T21:39:21;15.06;62.67
63976;DHT22;50167;47.958;21.780;2022-10-15T21:41:48;15.56;66.58
63976;DHT22;50167;47.958;21.780;2022-10-15T21:44:14;16.87;63.85
63976;DHT22;50167;47.958;21.780;2022-10-15T21:46:40;17.58;61.00
63976;DHT22;50167;47.958;21.780;2022-10-15T21:49:08;17.97;59.16
63976;DHT22;50167;47.958;21.780;2022-10-15T21:51:36;17.57;56.99
63976;DHT22;50167;47.958;21.780;2022-10-15T21:54:05;16.50;58.84
63976;DHT22;50167;47.958;21.780;2022-10-15T21:56:32;15.60;60.94
63976;DHT22;50167;47.958;21.780;2022-10-15T21:58:58;14.92;62.74
63976;DHT22;50167;47.958;21.780;2022-10-15T22:01:33;15.42;66.54
63976;DHT22;50167;47.958;21.780;2022-10-15T22:04:05;16.61;64.01
63976;DHT22;50167;47.958;21.780;2022-10-15T22:06:32;17.33;61.14
63976;DHT22;50167;47.958;21.780;2022-10-15T22:08:59;17.70;59.36
63976;DHT22;50167;47.958;21.780;2022-10-15T22:11:29;17.33;57.41
63976;DHT22;50167;47.958;21.780;2022-10-15T22:14:04;16.22;58.57
63976;DHT22;50167;47.958;21.780;2022-10-15T22:16:27;15.26;60.43
63976;DHT22;50167;47.958;21.780;2022-10-15T22:18:56;14.57;62.51
63976;DHT22;50167;47.958;21.780;2022-10-15T22:21:32;15.00;66.13
63976;DHT22;50167;47.958;21.780;2022-10-15T22:24:01;16.13;63.93
63976;DHT22;50167;47.958;21.780;2022-10-15T22:26:32;16.78;61.29
63976;DHT22;50167;47.958;21.780;2022-10-15T22:29:01;17.16;59.13
63976;DHT22;50167;47.958;21.780;2022-10-15T22:31:28;16.67;57.11
63976;DHT22;50167;47.958;21.780;2022-10-15T22:33:55;15.57;58.57
63976;DHT22;50167;47.958;21.780;2022-10-15T22:36:27;14.65;60.40
63976;DHT22;50167;47.958;21.780;2022-10-15T22:38:57;13.96;62.04
63976;DHT22;50167;47.958;21.780;2022-10-15T22:41:28;14.41;66.40
63976;DHT22;50167;47.958;21.780;2022-10-15T22:43:54;15.64;64.31
63976;DHT22;50167;47.958;21.780;2022-10-15T22:46:21;16.36;61.18
63976;DHT22;50167;47.958;21.780;2022-10-15T22:48:47;16.81;59.17
63976;DHT22;50167;47.958;21.780;2022-10-15T22:51:14;16.43;56.95
63976;DHT22;50167;47.958;21.780;2022-10-15T22:53:42;15.39;58.26
63976;DHT22;50167;47.958;21.780;2022-10-15T22:56:15;14.50;60.18
63976;DHT22;50167;47.958;21.780;2022-10-15T22:58:42;13.82;61.85
63976;DHT22;50167;47.958;21.780;2022-10-15T23:01:13;14.26;65.70
63976;DHT22;50167;47.958;21.780;2022-10-15T23:03:43;15.43;63.76
63976;DHT22;50167;47.958;21.780;2022-10-15T23:06:10;16.11;60.79
63976;DHT22;50167;47.958;21.780;2022-10-15T23:08:37;16.56;59.01
63976;DHT22;50167;47.958;21.780;2022-10-15T23:11:13;16.16;56.66
63976;DHT22;50167;47.958;21.780;2022-10-15T23:13:38;15.06;57.83
63976;DHT22;50167;47.958;21.780;2022-10-15T23:16:11;14.16;59.61
63976;DHT22;50167;47.958;21.780;2022-10-15T23:18:38;13.45;61.99
63976;DHT22;50167;47.958;21.780;2022-10-15T23:21:14;13.86;66.39
63976;DHT22;50167;47.958;21.780;2022-10-15T23:23:43;15.16;64.26
63976;DHT22;50167;47.958;21.780;2022-10-15T23:26:14;15.88;61.47
63976;DHT22;50167;47.958;21.780;2022-10-15T23:28:43;16.32;59.41
63976;DHT22;50167;47.958;21.780;2022-10-15T23:31:26;15.92;57.05
63976;DHT22;50167;47.958;21.780;2022-10-15T23:33:53;14.75;58.47
63976;DHT22;50167;47.958;21.780;2022-10-15T23:36:21;13.89;60.37
63976;DHT22;50167;47.958;21.780;2022-10-15T23:38:50;13.27;62.13
63976;DHT22;50167;47.958;21.780;2022-10-15T23:41:16;13.72;66.15
63976;DHT22;50167;47.958;21.780;2022-10-15T23:43:43;14.95;63.71
63976;DHT22;50167;47.958;21.780;2022-10-15T23:46:10;15.67;60.78
63976;DHT22;50167;47.958;21.780;2022-10-15T23:48:36;16.11;59.08
63976;DHT22;50167;47.958;21.780;2022-10-15T23:51:17;15.65;56.92
63976;DHT22;50167;47.958;21.780;2022-10-15T23:53:44;14.37;58.77
63976;DHT22;50167;47.958;21.780;2022-10-15T23:56:10;13.51;61.08
63976;DHT22;50167;47.958;21.780;2022-10-15T23:58:36;12.86;62.70
